Vlore, Albania
Current Conditions -  °F | °C
As of 10:50 AM on Thursday 23 Oct 2014 (Local Time) from LGKR Reporting Station
Scattered Clouds Scattered Clouds  
Wind Chill: 59°   Ceiling: Unl
Heat Index: 59°   Visibility: 6mi
Dew Point: 48°   Wind: 9mph
Humidity: 67%   Direction: 350°N
Pressure: 29.62"   Gusts: NA
Location:  40.47°N, 19.49°E
Report Text: LGKR 230850Z 35008KT 9999 FEW018TCU SCT025 15/09 Q1003 NOSIG
Loading
Personal Weather Stations






























Interactive Weather Map
Tropical Storm Tracking
New forecast layout! Learn more

10-Day Weather Forecast

Advertisements
Track Severe Weather on mobile